Time;durP1;ratioP1;P1;durP2;ratioP2;P2;SDS_P1;SDS_P2;PMS_P1;PMS_P2;Temp;Humidity;BMP_temperature;BMP_pressure;BME280_temperature;BME280_humidity;BME280_pressure;Samples;Min_cycle;Max_cycle;Signal;HPM_P1;HPM_P2
2023/05/09 00:01:26;;;;;;;6.17;3.00;;;;;;;11.01;100.00;101749.78;7395320;19;20399;-36
2023/05/09 00:03:55;;;;;;;6.10;3.07;;;;;;;11.00;100.00;101748.94;7387350;19;20423;-36
2023/05/09 00:06:26;;;;;;;22.67;9.60;;;;;;;10.97;100.00;101763.38;7391693;19;20408;-36
2023/05/09 00:08:56;;;;;;;10.10;4.40;;;;;;;11.05;100.00;101752.66;7391578;19;20419;-36
2023/05/09 00:11:28;;;;;;;8.43;3.60;;;;;;;11.08;100.00;101752.81;7395175;19;21075;-38
2023/05/09 00:13:57;;;;;;;4.97;2.40;;;;;;;10.98;100.00;101759.97;7394649;19;20446;-37
2023/05/09 00:16:27;;;;;;;19.57;8.43;;;;;;;10.97;100.00;101747.88;7392557;19;20423;-36
2023/05/09 00:18:57;;;;;;;7.67;3.00;;;;;;;10.96;100.00;101746.09;7395745;19;20457;-37
2023/05/09 00:21:27;;;;;;;7.33;2.90;;;;;;;10.85;100.00;101753.22;7393512;19;20390;-36
2023/05/09 00:23:56;;;;;;;6.27;3.00;;;;;;;10.85;100.00;101748.03;7391888;19;20975;-37
2023/05/09 00:26:29;;;;;;;8.60;3.50;;;;;;;10.82;100.00;101740.16;7392206;19;20395;-38
2023/05/09 00:28:58;;;;;;;5.50;2.73;;;;;;;10.80;100.00;101734.88;7392742;19;20419;-36
2023/05/09 00:31:28;;;;;;;7.13;2.27;;;;;;;10.77;100.00;101724.41;7393952;19;20396;-38
2023/05/09 00:33:57;;;;;;;21.73;9.43;;;;;;;10.71;100.00;101727.50;7393100;19;20439;-36
2023/05/09 00:36:27;;;;;;;6.17;2.40;;;;;;;10.70;100.00;101717.09;7392631;19;20407;-38
2023/05/09 00:38:56;;;;;;;19.50;9.27;;;;;;;10.59;100.00;101709.66;7392096;19;20415;-36
2023/05/09 00:41:29;;;;;;;5.30;2.60;;;;;;;10.56;100.00;101699.13;7393294;19;20420;-36
2023/05/09 00:43:58;;;;;;;8.43;3.57;;;;;;;10.53;100.00;101696.41;7391918;19;20418;-37
2023/05/09 00:46:28;;;;;;;6.93;3.20;;;;;;;10.47;100.00;101694.34;7393684;19;20417;-36
2023/05/09 00:48:57;;;;;;;10.60;3.40;;;;;;;10.46;100.00;101689.97;7389310;19;20415;-37
2023/05/09 00:51:27;;;;;;;7.30;3.17;;;;;;;10.42;100.00;101689.69;7396583;19;20819;-39
2023/05/09 00:53:57;;;;;;;10.60;3.90;;;;;;;10.40;100.00;101681.84;7392102;19;20423;-36
2023/05/09 00:56:29;;;;;;;10.57;4.90;;;;;;;10.38;100.00;101671.47;7392047;19;20392;-37
2023/05/09 00:58:58;;;;;;;6.13;3.00;;;;;;;10.27;100.00;101662.22;7391687;19;20423;-37
2023/05/09 01:01:28;;;;;;;7.43;3.00;;;;;;;10.21;100.00;101643.81;7392657;19;20944;-37
2023/05/09 01:03:57;;;;;;;7.63;3.20;;;;;;;10.16;100.00;101630.66;7391099;19;20498;-37
2023/05/09 01:06:36;;;;;;;17.20;8.27;;;;;;;10.04;100.00;101610.22;7391672;19;20415;-38
2023/05/09 01:09:11;;;;;;;5.80;2.50;;;;;;;10.02;100.00;101585.13;7393562;19;20447;-36
2023/05/09 01:11:47;;;;;;;6.10;3.20;;;;;;;10.00;100.00;101574.72;7392222;19;20398;-37
2023/05/09 01:14:23;;;;;;;10.23;4.43;;;;;;;10.01;100.00;101568.78;7391023;19;20419;-37
2023/05/09 01:16:57;;;;;;;7.13;2.80;;;;;;;9.93;100.00;101554.56;7392371;19;20418;-37
2023/05/09 01:19:42;;;;;;;7.47;3.43;;;;;;;9.86;100.00;101538.75;7391059;19;20418;-38
2023/05/09 01:22:15;;;;;;;9.43;2.73;;;;;;;9.84;100.00;101530.03;7390089;19;20410;-37
2023/05/09 01:25:08;;;;;;;6.03;2.63;;;;;;;9.79;100.00;101516.00;7391614;19;20392;-36
2023/05/09 01:27:51;;;;;;;23.07;11.13;;;;;;;9.75;100.00;101479.66;7387857;19;20412;-36
2023/05/09 01:30:23;;;;;;;5.30;2.50;;;;;;;9.65;100.00;101465.38;7392106;19;20756;-36
2023/05/09 01:32:53;;;;;;;6.00;2.77;;;;;;;9.63;100.00;101454.09;7390451;19;20416;-37
2023/05/09 01:35:25;;;;;;;5.97;2.80;;;;;;;9.62;100.00;101440.31;7392148;19;20383;-37
2023/05/09 01:37:56;;;;;;;13.40;5.80;;;;;;;9.56;100.00;101425.41;7387750;19;20399;-37
2023/05/09 01:40:27;;;;;;;7.60;3.20;;;;;;;9.66;100.00;101438.81;7391818;19;20388;-36
2023/05/09 01:42:59;;;;;;;6.50;3.23;;;;;;;9.53;100.00;101424.34;7389097;19;20989;-36
2023/05/09 01:45:31;;;;;;;6.63;3.20;;;;;;;9.46;100.00;101402.50;7391615;19;20393;-36
2023/05/09 01:48:02;;;;;;;6.40;3.20;;;;;;;9.42;100.00;101388.56;7387691;19;20410;-36
2023/05/09 01:50:32;;;;;;;8.77;3.00;;;;;;;9.34;100.00;101361.50;7393237;19;20471;-36
2023/05/09 01:53:03;;;;;;;6.10;3.50;;;;;;;9.34;100.00;101356.34;7389363;19;20920;-37
2023/05/09 01:55:34;;;;;;;7.73;3.43;;;;;;;9.27;100.00;101329.34;7390869;19;20432;-37
2023/05/09 01:58:06;;;;;;;7.50;3.33;;;;;;;9.25;100.00;101312.94;7388285;19;20455;-36
2023/05/09 02:00:38;;;;;;;5.40;2.70;;;;;;;9.34;100.00;101321.97;7391279;19;20395;-36
2023/05/09 02:03:08;;;;;;;7.70;2.90;;;;;;;9.27;100.00;101315.56;7388262;19;20409;-36
2023/05/09 02:05:38;;;;;;;6.20;3.17;;;;;;;9.32;100.00;101307.31;7390966;19;20749;-36
2023/05/09 02:08:09;;;;;;;6.07;3.40;;;;;;;9.32;100.00;101316.72;7387262;19;20427;-36
2023/05/09 02:10:39;;;;;;;8.13;3.23;;;;;;;9.34;100.00;101314.25;7391021;19;20400;-37
2023/05/09 02:13:09;;;;;;;11.30;4.20;;;;;;;9.24;100.00;101298.28;7387646;19;20423;-36
2023/05/09 02:15:41;;;;;;;9.37;3.43;;;;;;;9.15;100.00;101290.94;7389820;19;20935;-36
2023/05/09 02:18:11;;;;;;;5.93;3.20;;;;;;;9.08;100.00;101269.91;7388720;19;20811;-36
2023/05/09 02:20:41;;;;;;;11.30;5.70;;;;;;;9.10;100.00;101243.44;7390699;19;20387;-35
2023/05/09 02:23:10;;;;;;;9.30;3.80;;;;;;;9.04;100.00;101227.66;7389396;19;20439;-41
2023/05/09 02:25:40;;;;;;;22.90;11.33;;;;;;;9.08;100.00;101198.69;7391802;19;20935;-36
2023/05/09 02:28:10;;;;;;;7.83;3.60;;;;;;;9.10;100.00;101201.34;7387549;19;20441;-36
2023/05/09 02:30:44;;;;;;;7.83;3.90;;;;;;;9.08;100.00;101187.53;7390348;19;20392;-37
2023/05/09 02:33:15;;;;;;;6.07;3.03;;;;;;;8.92;100.00;101202.09;7388026;19;20427;-37
2023/05/09 02:35:47;;;;;;;6.20;3.43;;;;;;;8.93;100.00;101173.03;7392285;19;20390;-36
2023/05/09 02:38:18;;;;;;;5.20;2.97;;;;;;;8.90;100.00;101158.31;7387861;19;20739;-36
2023/05/09 02:40:49;;;;;;;6.30;3.43;;;;;;;8.93;100.00;101162.72;7390145;19;20395;-38
2023/05/09 02:43:21;;;;;;;10.17;4.03;;;;;;;8.87;100.00;101152.09;7388150;19;20423;-36
2023/05/09 02:45:53;;;;;;;9.00;3.50;;;;;;;8.83;100.00;101148.47;7391155;19;20748;-36
2023/05/09 02:48:22;;;;;;;11.17;4.30;;;;;;;8.82;100.00;101120.09;7387113;19;20946;-36
2023/05/09 02:50:52;;;;;;;16.93;8.80;;;;;;;8.81;100.00;101105.44;7388940;19;20919;-36
2023/05/09 02:53:21;;;;;;;6.80;3.90;;;;;;;8.77;100.00;101105.25;7382614;19;20419;-41
2023/05/09 02:55:52;;;;;;;10.67;5.27;;;;;;;8.70;100.00;101097.13;7389706;19;20391;-35
2023/05/09 02:58:22;;;;;;;7.47;3.17;;;;;;;8.58;100.00;101081.91;7387383;19;20954;-36
2023/05/09 03:00:54;;;;;;;11.43;3.60;;;;;;;8.55;100.00;101067.19;7390270;19;20413;-36
2023/05/09 03:03:24;;;;;;;9.30;4.40;;;;;;;8.53;100.00;101062.75;7387802;19;20435;-37
2023/05/09 03:05:53;;;;;;;10.40;5.40;;;;;;;8.47;100.00;101058.16;7389365;19;20388;-37
2023/05/09 03:08:23;;;;;;;7.07;4.03;;;;;;;8.46;100.00;101059.81;7387872;19;20445;-36
2023/05/09 03:10:53;;;;;;;11.63;5.13;;;;;;;8.49;100.00;101053.97;7389016;19;20391;-36
2023/05/09 03:13:22;;;;;;;13.40;4.77;;;;;;;8.50;100.00;101059.19;7385995;19;20406;-37
2023/05/09 03:15:55;;;;;;;7.90;4.13;;;;;;;8.40;100.00;101048.31;7388394;19;20395;-36
2023/05/09 03:18:24;;;;;;;8.40;3.83;;;;;;;8.33;100.00;101041.94;7386857;19;20431;-39
2023/05/09 03:20:54;;;;;;;9.87;4.33;;;;;;;8.35;100.00;101037.75;7391015;19;20731;-36
2023/05/09 03:23:23;;;;;;;6.47;3.70;;;;;;;8.32;100.00;101033.34;7386762;19;20756;-37
2023/05/09 03:25:53;;;;;;;7.83;4.20;;;;;;;8.31;100.00;101036.72;7388306;19;20388;-37
2023/05/09 03:28:22;;;;;;;8.70;4.10;;;;;;;8.32;100.00;101029.91;7388178;19;20414;-37
2023/05/09 03:30:55;;;;;;;14.53;4.43;;;;;;;8.34;100.00;101020.56;7395177;19;20395;-37
2023/05/09 03:33:24;;;;;;;10.00;4.53;;;;;;;8.29;100.00;101016.84;7393908;19;20436;-36
2023/05/09 03:35:54;;;;;;;62.80;29.60;;;;;;;8.89;100.00;100989.28;7394376;19;20415;-37
2023/05/09 03:38:24;;;;;;;25.00;11.73;;;;;;;9.86;100.00;101017.25;7392994;19;20985;-36
2023/05/09 03:40:55;;;;;;;18.17;9.50;;;;;;;9.71;100.00;100997.63;7395069;19;20396;-36
2023/05/09 03:43:25;;;;;;;15.27;7.97;;;;;;;9.69;100.00;100993.22;7394676;19;20423;-37
2023/05/09 03:45:57;;;;;;;17.10;9.97;;;;;;;9.44;100.00;101013.47;7394256;19;20958;-36
2023/05/09 03:48:26;;;;;;;8.03;4.13;;;;;;;9.00;100.00;101028.44;7392795;19;20418;-37
2023/05/09 03:50:56;;;;;;;8.57;4.73;;;;;;;8.72;100.00;101021.81;7395046;19;21041;-37
2023/05/09 03:53:25;;;;;;;8.43;4.50;;;;;;;8.55;100.00;101009.75;7392977;19;20410;-37
2023/05/09 03:55:55;;;;;;;11.23;4.30;;;;;;;8.41;100.00;101007.25;7393770;19;20395;-36
2023/05/09 03:58:25;;;;;;;9.90;4.47;;;;;;;8.45;100.00;100998.00;7392872;19;20418;-36
2023/05/09 04:00:57;;;;;;;11.07;5.57;;;;;;;8.40;100.00;100990.06;7394857;19;20448;-36
2023/05/09 04:03:27;;;;;;;7.27;4.10;;;;;;;8.30;100.00;100992.94;7392504;19;21022;-36
2023/05/09 04:05:56;;;;;;;13.93;5.70;;;;;;;8.36;100.00;100994.16;7395005;19;20407;-37
2023/05/09 04:08:26;;;;;;;11.23;5.03;;;;;;;8.38;100.00;100986.53;7392406;19;20411;-36
2023/05/09 04:10:55;;;;;;;14.17;6.33;;;;;;;8.39;100.00;100985.72;7393851;19;20471;-37
2023/05/09 04:13:25;;;;;;;16.10;8.93;;;;;;;8.80;100.00;100980.16;7391974;19;20422;-36
2023/05/09 04:15:57;;;;;;;31.00;15.40;;;;;;;8.86;100.00;100975.31;7397566;19;20945;-37
2023/05/09 04:18:27;;;;;;;41.43;18.90;;;;;;;8.74;100.00;100981.63;7391994;19;20407;-38
2023/05/09 04:20:56;;;;;;;28.77;13.07;;;;;;;9.13;100.00;100965.56;7393654;19;20388;-38
2023/05/09 04:23:26;;;;;;;24.80;13.50;;;;;;;9.56;100.00;100972.03;7393197;19;20438;-38
2023/05/09 04:25:55;;;;;;;33.97;17.53;;;;;;;9.27;100.00;100984.31;7393024;19;20415;-38
2023/05/09 04:28:25;;;;;;;15.83;9.20;;;;;;;8.75;100.00;100996.25;7391398;19;20410;-37
2023/05/09 04:30:57;;;;;;;11.37;6.23;;;;;;;8.62;100.00;100980.97;7394117;19;20422;-37
2023/05/09 04:33:27;;;;;;;17.57;8.50;;;;;;;8.53;100.00;100970.19;7391344;19;20423;-36
2023/05/09 04:35:57;;;;;;;12.07;6.27;;;;;;;8.52;100.00;100969.31;7393144;19;20400;-36
2023/05/09 04:38:26;;;;;;;17.13;6.00;;;;;;;8.35;100.00;100973.50;7390685;19;20431;-37
2023/05/09 04:40:57;;;;;;;12.57;6.57;;;;;;;8.47;100.00;100965.56;7392332;19;20384;-37
2023/05/09 04:43:28;;;;;;;11.10;6.70;;;;;;;8.43;100.00;100956.81;7390968;19;20411;-36
2023/05/09 04:46:01;;;;;;;17.03;10.10;;;;;;;8.76;100.00;100962.00;7391813;19;21029;-37
2023/05/09 04:48:31;;;;;;;26.87;15.13;;;;;;;8.89;100.00;100960.06;7388760;19;21030;-37
2023/05/09 04:51:00;;;;;;;11.03;6.00;;;;;;;8.85;100.00;100960.69;7392957;19;20384;-38
2023/05/09 04:53:30;;;;;;;36.40;20.47;;;;;;;9.10;100.00;100960.28;7390111;19;20966;-38
2023/05/09 04:56:00;;;;;;;39.63;21.93;;;;;;;9.08;100.00;100955.88;7392429;19;20392;-38
2023/05/09 04:58:29;;;;;;;11.10;5.57;;;;;;;8.70;100.00;100958.22;7390483;19;20406;-37
2023/05/09 05:01:02;;;;;;;11.77;6.37;;;;;;;8.53;100.00;100954.75;7392676;19;20391;-37
2023/05/09 05:03:31;;;;;;;10.23;4.87;;;;;;;8.45;100.00;100944.91;7391235;19;20415;-37
2023/05/09 05:06:01;;;;;;;6.73;4.10;;;;;;;8.47;100.00;100951.00;7394371;19;20394;-37
2023/05/09 05:08:30;;;;;;;16.47;8.33;;;;;;;8.50;100.00;100945.16;7389457;19;20407;-37
2023/05/09 05:11:00;;;;;;;11.93;7.17;;;;;;;8.46;100.00;100941.53;7391974;19;20922;-37
2023/05/09 05:13:29;;;;;;;11.97;5.53;;;;;;;8.49;100.00;100934.00;7389877;19;20427;-37
2023/05/09 05:16:01;;;;;;;10.60;5.57;;;;;;;8.49;100.00;100930.53;7391818;19;20484;-39
2023/05/09 05:18:31;;;;;;;11.03;5.50;;;;;;;8.58;100.00;100932.72;7391691;19;20435;-36
2023/05/09 05:21:01;;;;;;;11.13;5.03;;;;;;;8.62;100.00;100929.53;7394600;19;20395;-37
2023/05/09 05:23:30;;;;;;;12.67;6.37;;;;;;;8.58;100.00;100922.44;7388935;19;20451;-37
2023/05/09 05:26:00;;;;;;;10.20;5.27;;;;;;;8.58;100.00;100927.59;7393050;19;20434;-36
2023/05/09 05:28:29;;;;;;;15.13;4.80;;;;;;;8.60;100.00;100925.97;7386074;19;20423;-38
2023/05/09 05:31:01;;;;;;;9.13;4.87;;;;;;;8.68;100.00;100924.72;7393625;19;20372;-37
2023/05/09 05:33:31;;;;;;;26.90;13.70;;;;;;;8.80;100.00;100926.13;7387993;19;20431;-37
2023/05/09 05:36:00;;;;;;;14.67;5.70;;;;;;;8.83;100.00;100929.78;7391806;19;20392;-38
2023/05/09 05:38:30;;;;;;;10.03;5.37;;;;;;;8.85;100.00;100923.00;7388783;19;20443;-39
2023/05/09 05:40:59;;;;;;;8.57;4.13;;;;;;;8.93;100.00;100920.84;7391973;19;20383;-38
2023/05/09 05:43:29;;;;;;;9.87;5.13;;;;;;;8.99;100.00;100920.25;7388459;19;20426;-38
2023/05/09 05:46:01;;;;;;;8.77;4.87;;;;;;;9.07;100.00;100918.06;7393313;19;20409;-38
2023/05/09 05:48:31;;;;;;;11.30;5.43;;;;;;;9.10;100.00;100915.63;7389011;19;20950;-38
2023/05/09 05:51:00;;;;;;;10.60;5.10;;;;;;;9.19;100.00;100918.69;7389798;19;20778;-38
2023/05/09 05:53:30;;;;;;;12.43;4.50;;;;;;;9.25;100.00;100916.41;7388057;19;20475;-38
2023/05/09 05:56:01;;;;;;;11.43;5.43;;;;;;;9.34;100.00;100922.81;7391985;19;20424;-38
2023/05/09 05:58:30;;;;;;;10.50;4.73;;;;;;;9.35;100.00;100928.06;7388260;19;20413;-37
2023/05/09 06:01:02;;;;;;;8.50;4.97;;;;;;;9.29;100.00;100928.63;7390810;19;20395;-37
2023/05/09 06:03:32;;;;;;;6.87;4.20;;;;;;;9.36;100.00;100926.34;7388438;19;20462;-38
2023/05/09 06:06:02;;;;;;;10.23;5.00;;;;;;;9.43;100.00;100931.88;7390225;19;20395;-38
2023/05/09 06:08:32;;;;;;;7.90;4.60;;;;;;;9.53;100.00;100940.06;7387874;19;20407;-37
2023/05/09 06:11:04;;;;;;;9.80;4.80;;;;;;;9.65;100.00;100924.31;7390677;19;20398;-37
2023/05/09 06:13:34;;;;;;;9.30;4.80;;;;;;;9.70;100.00;100938.31;7387329;19;20468;-37
2023/05/09 06:16:06;;;;;;;10.97;5.77;;;;;;;9.79;100.00;100949.03;7389823;19;20388;-38
2023/05/09 06:18:48;;;;;;;8.87;5.40;;;;;;;9.84;100.00;100957.00;7390432;19;20471;-37
2023/05/09 06:21:18;;;;;;;9.50;4.80;;;;;;;9.82;100.00;100964.69;7390499;19;20743;-38
2023/05/09 06:23:47;;;;;;;10.20;5.30;;;;;;;9.93;100.00;100954.88;7388061;19;20429;-37
2023/05/09 06:26:37;;;;;;;10.03;4.60;;;;;;;10.01;100.00;100960.41;7390152;19;20420;-37
2023/05/09 06:29:07;;;;;;;10.93;5.37;;;;;;;10.17;100.00;100948.22;7388070;19;20419;-37
2023/05/09 06:31:39;;;;;;;9.53;5.07;;;;;;;10.29;100.00;100955.66;7389469;19;20400;-37
2023/05/09 06:34:09;;;;;;;9.47;4.73;;;;;;;10.42;100.00;100957.97;7387308;19;20447;-37
2023/05/09 06:36:39;;;;;;;21.27;9.47;;;;;;;10.35;100.00;100972.28;7388852;19;20796;-36
2023/05/09 06:39:09;;;;;;;14.17;5.63;;;;;;;10.48;100.00;100972.88;7388179;19;20443;-37
2023/05/09 06:41:38;;;;;;;9.00;4.83;;;;;;;10.55;100.00;100969.75;7393579;19;20617;-37
2023/05/09 06:44:08;;;;;;;10.03;4.73;;;;;;;10.69;100.00;100974.66;7387223;19;20435;-38
2023/05/09 06:46:40;;;;;;;11.47;5.00;;;;;;;10.77;100.00;100978.47;7388334;19;20994;-37
2023/05/09 06:49:09;;;;;;;8.80;4.70;;;;;;;10.80;100.00;100999.25;7387419;19;21000;-38
2023/05/09 06:51:39;;;;;;;8.87;5.10;;;;;;;10.94;100.00;100990.41;7389494;19;20391;-37
2023/05/09 06:54:08;;;;;;;9.10;5.27;;;;;;;11.11;100.00;100987.69;7386294;19;20427;-38
2023/05/09 06:56:38;;;;;;;9.50;4.90;;;;;;;11.18;100.00;101005.19;7388910;19;20403;-37
2023/05/09 06:59:12;;;;;;;8.57;4.70;;;;;;;11.40;100.00;101003.56;7387356;19;20422;-37
2023/05/09 07:01:44;;;;;;;7.30;4.53;;;;;;;11.41;100.00;101031.16;7390811;19;20391;-38
2023/05/09 07:04:13;;;;;;;10.30;5.37;;;;;;;11.45;100.00;101040.78;7386842;19;20431;-38
2023/05/09 07:06:43;;;;;;;10.70;4.93;;;;;;;11.50;100.00;101053.03;7389124;19;20418;-40
2023/05/09 07:09:14;;;;;;;12.37;5.20;;;;;;;11.59;100.00;101059.47;7387325;19;20415;-37
2023/05/09 07:11:44;;;;;;;8.53;5.43;;;;;;;11.59;100.00;101082.72;7388372;19;20956;-37
2023/05/09 07:14:14;;;;;;;10.47;5.20;;;;;;;11.72;100.00;101067.72;7386323;19;20831;-37
2023/05/09 07:16:46;;;;;;;10.23;4.33;;;;;;;11.86;100.00;101081.25;7388248;19;20439;-37
2023/05/09 07:19:16;;;;;;;7.87;4.40;;;;;;;12.04;100.00;101077.69;7386600;19;20419;-37
2023/05/09 07:21:45;;;;;;;12.53;4.90;;;;;;;12.19;100.00;101078.28;7389885;19;20396;-38
2023/05/09 07:24:15;;;;;;;12.17;6.50;;;;;;;12.31;100.00;101097.72;7386940;19;20418;-37
2023/05/09 07:26:44;;;;;;;11.43;5.63;;;;;;;12.25;100.00;101127.69;7387802;19;20418;-38
2023/05/09 07:29:14;;;;;;;11.23;4.50;;;;;;;12.37;100.00;101118.66;7386350;19;20426;-37
2023/05/09 07:31:46;;;;;;;9.73;5.70;;;;;;;12.40;100.00;101132.63;7388123;19;20383;-38
2023/05/09 07:34:18;;;;;;;7.70;4.17;;;;;;;12.55;100.00;101134.94;7384992;19;20434;-36
2023/05/09 07:36:48;;;;;;;9.40;4.80;;;;;;;12.62;100.00;101137.75;7386911;19;20399;-37
2023/05/09 07:39:17;;;;;;;12.47;4.43;;;;;;;12.73;100.00;101140.75;7387033;19;21138;-37
2023/05/09 07:41:47;;;;;;;11.17;5.77;;;;;;;12.82;100.00;101135.97;7389356;19;20399;-38
2023/05/09 07:44:17;;;;;;;10.43;5.60;;;;;;;12.98;100.00;101140.03;7383725;19;20802;-37
2023/05/09 07:46:49;;;;;;;13.60;6.53;;;;;;;12.98;100.00;101152.97;7391636;19;20423;-37
2023/05/09 07:49:19;;;;;;;8.97;4.77;;;;;;;13.06;100.00;101145.47;7389583;19;20462;-38
2023/05/09 07:51:48;;;;;;;10.03;6.37;;;;;;;13.13;100.00;101162.13;7388448;19;20395;-37
2023/05/09 07:54:18;;;;;;;15.10;6.87;;;;;;;13.24;100.00;101168.63;7387066;19;21005;-37
2023/05/09 07:56:48;;;;;;;12.90;5.60;;;;;;;13.42;100.00;101162.31;7389002;19;20403;-39
2023/05/09 07:59:18;;;;;;;8.60;4.33;;;;;;;13.63;100.00;101162.25;7387656;19;20414;-39
2023/05/09 08:01:50;;;;;;;10.47;4.70;;;;;;;13.80;100.00;101191.41;7391548;19;20388;-38
2023/05/09 08:04:20;;;;;;;9.47;5.20;;;;;;;13.89;100.00;101212.44;7387586;19;20423;-38
2023/05/09 08:06:49;;;;;;;7.17;4.00;;;;;;;14.05;100.00;101205.19;7388035;19;20471;-37
2023/05/09 08:09:20;;;;;;;9.93;5.03;;;;;;;14.16;100.00;101221.16;7387852;19;20414;-38
2023/05/09 08:11:49;;;;;;;18.40;8.23;;;;;;;14.24;100.00;101234.38;7388600;19;21017;-37
2023/05/09 08:14:19;;;;;;;8.80;5.00;;;;;;;14.18;100.00;101266.19;7387183;19;20461;-38
2023/05/09 08:16:51;;;;;;;11.47;5.57;;;;;;;14.38;100.00;101238.34;7398587;19;20431;-40
2023/05/09 08:19:24;;;;;;;9.60;4.30;;;;;;;14.61;100.00;101243.41;7394431;19;20453;-40
2023/05/09 08:21:54;;;;;;;10.07;5.30;;;;;;;14.77;100.00;101268.19;7398254;19;20478;-37
2023/05/09 08:24:24;;;;;;;12.50;5.83;;;;;;;14.78;100.00;101289.84;7393614;19;20419;-41
2023/05/09 08:26:53;;;;;;;11.13;4.30;;;;;;;14.85;100.00;101294.41;7393581;19;20445;-37
2023/05/09 08:29:23;;;;;;;9.90;4.63;;;;;;;14.84;100.00;101303.03;7393006;19;20434;-41
2023/05/09 08:31:55;;;;;;;8.93;4.70;;;;;;;14.97;100.00;101313.00;7394139;19;20411;-38
2023/05/09 08:34:25;;;;;;;9.23;5.13;;;;;;;15.13;100.00;101323.91;7394529;19;20928;-37
2023/05/09 08:36:55;;;;;;;8.30;4.70;;;;;;;15.21;100.00;101314.63;7393445;19;20415;-37
2023/05/09 08:39:24;;;;;;;10.37;4.70;;;;;;;15.37;100.00;101328.09;7393385;19;20419;-38
2023/05/09 08:41:54;;;;;;;7.93;4.20;;;;;;;15.53;100.00;101329.44;7393990;19;20380;-38
2023/05/09 08:44:24;;;;;;;6.93;3.60;;;;;;;15.75;100.00;101320.56;7392891;19;20962;-38
2023/05/09 08:46:59;;;;;;;8.10;3.73;;;;;;;15.93;100.00;101324.56;7393655;19;20437;-38
2023/05/09 08:49:29;;;;;;;9.20;3.70;;;;;;;16.11;100.00;101321.63;7392141;19;20422;-37
2023/05/09 08:51:59;;;;;;;15.80;6.90;;;;;;;16.17;100.00;101321.81;7396890;19;20485;-37
2023/05/09 08:54:29;;;;;;;17.70;7.90;;;;;;;16.30;100.00;101327.31;7391761;19;20442;-39
2023/05/09 08:56:59;;;;;;;10.73;4.00;;;;;;;16.39;100.00;101324.97;7393095;19;20427;-38
2023/05/09 08:59:29;;;;;;;10.00;4.93;;;;;;;16.39;100.00;101311.97;7391710;19;20444;-39
2023/05/09 09:02:02;;;;;;;8.13;4.00;;;;;;;16.38;100.00;101323.22;7393803;19;20388;-37
2023/05/09 09:04:31;;;;;;;8.53;4.50;;;;;;;16.51;100.00;101318.34;7391969;19;20423;-37
2023/05/09 09:07:01;;;;;;;8.97;5.23;;;;;;;16.41;100.00;101314.59;7393469;19;20443;-39
2023/05/09 09:09:31;;;;;;;6.50;3.57;;;;;;;16.46;100.00;101311.28;7393628;19;20838;-39
2023/05/09 09:12:00;;;;;;;8.20;3.83;;;;;;;16.69;100.00;101297.06;7391413;19;20388;-40
2023/05/09 09:14:30;;;;;;;6.30;3.40;;;;;;;16.72;99.43;101282.41;7389144;19;20426;-37
2023/05/09 09:17:02;;;;;;;9.23;3.93;;;;;;;16.83;98.29;101268.75;7388417;19;20422;-38
2023/05/09 09:19:33;;;;;;;8.63;4.33;;;;;;;17.10;99.36;101273.78;7390108;19;20451;-37
2023/05/09 09:22:06;;;;;;;11.30;3.50;;;;;;;16.98;97.02;101257.81;7390907;19;20437;-38
2023/05/09 09:24:36;;;;;;;8.37;4.57;;;;;;;17.05;97.62;101254.53;7391572;19;20443;-38
2023/05/09 09:27:07;;;;;;;9.77;4.10;;;;;;;17.18;98.75;101270.47;7390657;19;20442;-39
2023/05/09 09:29:37;;;;;;;8.23;3.60;;;;;;;17.45;96.88;101244.13;7391602;19;20423;-38
2023/05/09 09:32:09;;;;;;;11.27;5.90;;;;;;;17.55;96.83;101239.97;7390684;19;20409;-37
2023/05/09 09:34:39;;;;;;;8.30;3.40;;;;;;;17.63;95.32;101238.38;7391305;19;20430;-38
2023/05/09 09:37:09;;;;;;;7.93;3.27;;;;;;;17.60;94.43;101233.13;7389918;19;20427;-38
2023/05/09 09:39:39;;;;;;;7.23;3.50;;;;;;;17.72;94.29;101221.16;7391437;19;20411;-38
2023/05/09 09:42:13;;;;;;;5.53;3.27;;;;;;;17.71;93.01;101214.16;7391501;19;20729;-38
2023/05/09 09:44:42;;;;;;;6.43;3.20;;;;;;;17.46;92.03;101213.69;7392203;19;20415;-38
2023/05/09 09:47:14;;;;;;;9.13;3.53;;;;;;;17.33;93.24;101213.41;7387029;19;20436;-38
2023/05/09 09:49:48;;;;;;;6.70;3.90;;;;;;;17.48;92.03;101209.41;7389270;19;20396;-38
2023/05/09 09:52:25;;;;;;;7.33;4.00;;;;;;;17.64;92.49;101203.63;7389995;19;20388;-38
2023/05/09 09:54:57;;;;;;;7.53;3.60;;;;;;;17.78;92.02;101200.38;7390170;19;21083;-38
2023/05/09 09:57:36;;;;;;;7.13;3.47;;;;;;;17.84;91.25;101182.22;7387876;19;20447;-38
2023/05/09 10:00:07;;;;;;;8.10;3.90;;;;;;;18.10;91.62;101189.69;7390309;19;20397;-38
2023/05/09 10:02:48;;;;;;;7.63;3.67;;;;;;;18.39;91.03;101183.19;7387511;19;20419;-38
2023/05/09 10:05:25;;;;;;;12.80;5.93;;;;;;;18.19;89.05;101175.91;7389190;19;20395;-41
2023/05/09 10:07:58;;;;;;;10.03;5.47;;;;;;;18.26;89.73;101184.75;7387826;19;20776;-39
2023/05/09 10:10:32;;;;;;;5.93;3.67;;;;;;;18.38;87.98;101171.88;7389040;19;20403;-39
2023/05/09 10:13:06;;;;;;;7.50;3.33;;;;;;;18.63;88.80;101164.44;7389328;19;20439;-37
2023/05/09 10:15:37;;;;;;;11.87;3.37;;;;;;;18.71;87.69;101160.19;7390265;19;20784;-38
2023/05/09 10:18:27;;;;;;;16.13;3.97;;;;;;;18.87;86.80;101150.81;7388999;19;20406;-41
2023/05/09 10:20:59;;;;;;;15.20;3.73;;;;;;;19.12;88.05;101155.53;7391452;19;20398;-39
2023/05/09 10:23:30;;;;;;;9.33;3.70;;;;;;;19.10;85.91;101139.81;7390700;19;20418;-40
2023/05/09 10:26:05;;;;;;;8.13;3.57;;;;;;;19.20;85.96;101127.75;7390092;19;20936;-41
2023/05/09 10:28:37;;;;;;;9.20;3.60;;;;;;;19.22;84.93;101119.91;7388381;19;21000;-37
2023/05/09 10:31:10;;;;;;;7.83;3.47;;;;;;;19.17;84.14;101127.69;7391633;19;20392;-38
2023/05/09 10:33:45;;;;;;;7.10;3.87;;;;;;;18.83;83.73;101111.56;7387534;19;20407;-38
2023/05/09 10:36:19;;;;;;;8.57;3.53;;;;;;;18.97;83.43;101106.50;7390775;19;20422;-41
2023/05/09 10:38:52;;;;;;;6.70;3.47;;;;;;;19.40;84.71;101111.38;7386254;19;20423;-43
2023/05/09 10:41:23;;;;;;;10.10;3.37;;;;;;;19.54;83.63;101104.56;7390329;19;20918;-39
2023/05/09 10:43:53;;;;;;;11.20;3.83;;;;;;;19.74;83.21;101097.78;7387993;19;20467;-38
2023/05/09 10:46:24;;;;;;;5.07;3.00;;;;;;;19.66;81.77;101095.06;7389274;19;20394;-38
2023/05/09 10:48:57;;;;;;;6.50;3.50;;;;;;;19.34;79.35;101083.44;7386763;19;21097;-38
2023/05/09 10:51:26;;;;;;;14.23;3.10;;;;;;;19.37;80.07;101069.47;7391002;19;20399;-38
2023/05/09 10:53:56;;;;;;;6.30;3.37;;;;;;;19.67;81.59;101082.00;7386932;19;20411;-44
2023/05/09 10:56:28;;;;;;;5.83;3.37;;;;;;;19.93;81.31;101063.03;7387782;19;20397;-44
2023/05/09 10:58:57;;;;;;;5.43;3.13;;;;;;;20.06;81.21;101063.16;7390280;19;20446;-38
2023/05/09 11:01:33;;;;;;;9.97;3.60;;;;;;;19.84;80.35;101058.59;7389670;19;20929;-40
2023/05/09 11:04:11;;;;;;;5.37;2.83;;;;;;;19.98;79.78;101041.28;7388535;19;20421;-38
2023/05/09 11:06:44;;;;;;;7.73;3.23;;;;;;;19.83;79.25;101038.53;7389088;19;20395;-37
2023/05/09 11:09:34;;;;;;;11.10;3.20;;;;;;;19.98;79.13;101026.44;7387882;19;20415;-38
2023/05/09 11:12:12;;;;;;;10.10;2.93;;;;;;;20.10;77.33;101016.03;7391527;19;20399;-37
2023/05/09 11:14:43;;;;;;;8.23;3.10;;;;;;;20.19;77.91;101016.94;7389899;19;20426;-39
2023/05/09 11:17:16;;;;;;;6.47;2.90;;;;;;;20.21;76.83;101010.84;7385618;19;20448;-38
2023/05/09 11:23:16;;;;;;;10.70;3.27;;;;;;;19.90;75.02;100991.44;7385652;19;20439;-38
2023/05/09 11:26:15;;;;;;;6.87;3.87;;;;;;;19.90;75.49;100994.91;7388299;19;20491;-38
2023/05/09 11:28:55;;;;;;;8.70;3.13;;;;;;;20.22;77.13;100981.19;7386677;19;20426;-38
2023/05/09 11:31:35;;;;;;;6.33;2.83;;;;;;;20.29;76.21;100987.34;7388331;19;20388;-39
2023/05/09 11:34:10;;;;;;;5.13;2.83;;;;;;;20.09;75.04;100974.13;7387196;19;20437;-39
2023/05/09 11:36:46;;;;;;;9.40;3.23;;;;;;;19.98;74.90;100968.81;7387720;19;20419;-37
2023/05/09 11:39:26;;;;;;;10.83;3.60;;;;;;;19.94;74.71;100962.66;7386796;19;20446;-39
2023/05/09 11:41:56;;;;;;;7.90;3.10;;;;;;;20.21;74.80;100957.63;7388061;19;20416;-37